createdAt,value
2023-03-26T00:01:52.328Z,98445.22
2023-03-26T00:04:21.896Z,98451.19
2023-03-26T00:06:50.402Z,98448.66
2023-03-26T00:09:18.715Z,98444.34
2023-03-26T00:11:46.864Z,98440.94
2023-03-26T00:14:17.942Z,98439.25
2023-03-26T00:16:47.642Z,98436.72
2023-03-26T00:19:15.740Z,98430.69
2023-03-26T00:21:43.344Z,98433.34
2023-03-26T00:24:16.369Z,98430.78
2023-03-26T00:26:45.155Z,98437.63
2023-03-26T00:29:14.051Z,98435.97
2023-03-26T00:31:46.543Z,98447.97
2023-03-26T00:34:18.493Z,98454.03
2023-03-26T00:36:47.181Z,98448.84
2023-03-26T00:39:15.368Z,98433.41
2023-03-26T00:41:43.436Z,98441.09
2023-03-26T00:44:11.646Z,98436.81
2023-03-26T00:46:39.721Z,98434.22
2023-03-26T00:49:10.927Z,98429.25
2023-03-26T00:51:39.355Z,98432.66
2023-03-26T00:54:08.637Z,98427.47
2023-03-26T00:56:36.219Z,98424.16
2023-03-26T00:59:03.794Z,98419.03
2023-03-26T01:01:32.586Z,98415.63
2023-03-26T01:04:27.645Z,98411.44
2023-03-26T01:07:01.449Z,98421.59
2023-03-26T01:09:34.744Z,98413.06
2023-03-26T01:12:04.770Z,98404.41
2023-03-26T01:14:32.448Z,98407.84
2023-03-26T01:17:03.779Z,98409.59
2023-03-26T01:19:44.864Z,98414.81
2023-03-26T01:22:21.736Z,98411.31
2023-03-26T01:24:58.925Z,98417.22
2023-03-26T01:27:42.507Z,98419.00
2023-03-26T01:30:27.910Z,98425.84
2023-03-26T01:33:14.334Z,98412.22
2023-03-26T01:35:58.936Z,98407.97
2023-03-26T01:38:38.637Z,98407.97
2023-03-26T01:41:20.637Z,98403.78
2023-03-26T01:43:58.944Z,98396.00
2023-03-26T01:46:27.420Z,98401.13
2023-03-26T01:48:56.062Z,98393.41
2023-03-26T01:51:32.927Z,98390.00
2023-03-26T01:54:04.298Z,98396.78
2023-03-26T01:56:36.794Z,98394.28
2023-03-26T01:59:23.322Z,98398.50
2023-03-26T02:02:21.891Z,98386.75
2023-03-26T02:04:53.113Z,98383.56
2023-03-26T02:07:34.716Z,98374.69
2023-03-26T02:10:27.587Z,98377.22
2023-03-26T02:12:56.136Z,98376.34
2023-03-26T02:15:24.382Z,98378.00
2023-03-26T02:17:53.179Z,98366.78
2023-03-26T02:20:21.449Z,98369.41
2023-03-26T02:22:48.973Z,98369.28
2023-03-26T02:25:21.253Z,98367.53
2023-03-26T02:27:52.064Z,98371.78
2023-03-26T02:30:25.923Z,98376.97
2023-03-26T02:32:59.363Z,98379.63
2023-03-26T02:35:33.312Z,98378.78
2023-03-26T02:38:02.884Z,98376.13
2023-03-26T02:40:30.680Z,98376.13
2023-03-26T02:42:58.861Z,98371.88
2023-03-26T02:45:29.000Z,98370.19
2023-03-26T02:48:05.635Z,98364.09
2023-03-26T02:50:59.230Z,98354.78
2023-03-26T02:53:29.939Z,98356.53
2023-03-26T02:56:16.710Z,98355.72
2023-03-26T02:58:57.709Z,98359.97
2023-03-26T03:01:25.417Z,98357.38
2023-03-26T03:03:55.414Z,98353.94
2023-03-26T03:06:41.437Z,98346.19
2023-03-26T03:09:09.006Z,98343.72
2023-03-26T03:11:37.482Z,98345.47
2023-03-26T03:14:06.433Z,98345.63
2023-03-26T03:16:34.862Z,98340.47
2023-03-26T03:19:12.695Z,98337.06
2023-03-26T03:21:42.031Z,98341.34
2023-03-26T03:24:11.710Z,98335.34
2023-03-26T03:26:47.776Z,98340.56
2023-03-26T03:29:33.280Z,98332.03
2023-03-26T03:32:22.955Z,98331.19
2023-03-26T03:34:53.587Z,98318.28
2023-03-26T03:37:21.452Z,98318.28
2023-03-26T03:39:53.277Z,98306.31
2023-03-26T03:42:23.111Z,98305.53
2023-03-26T03:44:53.554Z,98296.16
2023-03-26T03:47:53.482Z,98305.72
2023-03-26T03:50:28.816Z,98296.31
2023-03-26T03:53:18.635Z,98304.94
2023-03-26T03:55:53.429Z,98293.78
2023-03-26T03:58:24.516Z,98294.72
2023-03-26T04:01:01.016Z,98304.13
2023-03-26T04:03:51.873Z,98294.72
2023-03-26T04:06:25.310Z,98298.16
2023-03-26T04:08:54.620Z,98298.19
2023-03-26T04:11:23.443Z,98290.56
2023-03-26T04:14:26.386Z,98281.13
2023-03-26T04:16:59.961Z,98285.47
2023-03-26T04:19:30.202Z,98282.00
2023-03-26T04:22:02.650Z,98282.84
2023-03-26T04:24:38.419Z,98280.31
2023-03-26T04:27:31.668Z,98278.66
2023-03-26T04:30:17.252Z,98274.34
2023-03-26T04:32:45.605Z,98264.91
2023-03-26T04:35:16.725Z,98272.56
2023-03-26T04:37:49.055Z,98270.06
2023-03-26T04:40:37.445Z,98261.56
2023-03-26T04:43:16.553Z,98269.22
2023-03-26T04:46:10.673Z,98261.59
2023-03-26T04:48:47.505Z,98257.34
2023-03-26T04:51:22.086Z,98258.25
2023-03-26T04:53:57.930Z,98249.78
2023-03-26T04:56:53.034Z,98246.53
2023-03-26T04:59:52.968Z,98247.34
2023-03-26T05:02:20.657Z,98247.34
2023-03-26T05:04:52.206Z,98240.59
2023-03-26T05:07:25.421Z,98236.31
2023-03-26T05:09:58.133Z,98238.91
2023-03-26T05:12:51.982Z,98244.06
2023-03-26T05:15:34.045Z,98231.19
2023-03-26T05:18:08.981Z,98231.28
2023-03-26T05:20:49.898Z,98238.88
2023-03-26T05:23:18.064Z,98231.94
2023-03-26T05:25:55.403Z,98228.31
2023-03-26T05:28:27.598Z,98239.53
2023-03-26T05:31:02.842Z,98236.09
2023-03-26T05:33:36.329Z,98237.72
2023-03-26T05:36:15.542Z,98235.97
2023-03-26T05:38:49.457Z,98231.97
2023-03-26T05:41:36.892Z,98237.75
2023-03-26T05:44:04.729Z,98239.44
2023-03-26T05:46:32.330Z,98227.38
2023-03-26T05:49:00.985Z,98232.59
2023-03-26T05:51:33.096Z,98241.22
2023-03-26T05:54:35.949Z,98225.16
2023-03-26T05:57:23.997Z,98233.66
2023-03-26T06:00:11.992Z,98225.19
2023-03-26T06:02:46.973Z,98219.22
2023-03-26T06:05:37.520Z,98213.28
2023-03-26T06:08:20.763Z,98215.06
2023-03-26T06:10:59.870Z,98210.91
2023-03-26T06:13:32.818Z,98198.94
2023-03-26T06:16:00.495Z,98201.50
2023-03-26T06:18:33.837Z,98191.41
2023-03-26T06:21:14.122Z,98195.63
2023-03-26T06:23:49.316Z,98183.66
2023-03-26T06:26:37.719Z,98186.22
2023-03-26T06:29:25.019Z,98181.91
2023-03-26T06:32:19.764Z,98187.06
2023-03-26T06:35:09.473Z,98183.72
2023-03-26T06:37:38.934Z,98177.00
2023-03-26T06:40:10.064Z,98171.94
2023-03-26T06:43:09.173Z,98159.97
2023-03-26T06:46:11.316Z,98166.84
2023-03-26T06:48:40.193Z,98166.75
2023-03-26T06:51:13.896Z,98152.22
2023-03-26T06:54:14.130Z,98159.91
2023-03-26T06:56:56.960Z,98150.47
2023-03-26T06:59:43.204Z,98151.41
2023-03-26T07:02:29.162Z,98153.91
2023-03-26T07:05:15.689Z,98145.44
2023-03-26T07:08:03.037Z,98135.84
2023-03-26T07:10:49.444Z,98122.13
2023-03-26T07:13:49.589Z,98128.19
2023-03-26T07:16:35.657Z,98127.28
2023-03-26T07:19:21.811Z,98122.06
2023-03-26T07:21:50.645Z,98123.75
2023-03-26T07:24:44.985Z,98116.06
2023-03-26T07:27:48.357Z,98109.28
2023-03-26T07:30:47.748Z,98104.31
2023-03-26T07:33:38.268Z,98099.03
2023-03-26T07:36:36.111Z,98106.00
2023-03-26T07:40:01.723Z,98106.75
2023-03-26T07:43:13.493Z,98106.66
2023-03-26T07:46:12.965Z,98103.22
2023-03-26T07:49:13.051Z,98099.72
2023-03-26T07:52:01.574Z,98099.63
2023-03-26T07:54:49.846Z,98097.00
2023-03-26T07:58:00.611Z,98088.53
2023-03-26T08:01:01.877Z,98087.56
2023-03-26T08:03:44.947Z,98088.44
2023-03-26T08:06:37.190Z,98079.00
2023-03-26T08:09:44.791Z,98088.59
2023-03-26T08:13:08.149Z,98090.25
2023-03-26T08:16:10.395Z,98077.38
2023-03-26T08:19:01.960Z,98085.88
2023-03-26T08:21:58.146Z,98073.00
2023-03-26T08:24:43.812Z,98042.16
2023-03-26T08:27:21.692Z,98050.88
2023-03-26T08:30:03.038Z,98060.97
2023-03-26T08:32:31.911Z,98073.63
2023-03-26T08:35:04.164Z,98066.66
2023-03-26T08:37:32.159Z,98050.44
2023-03-26T08:40:00.037Z,98055.59
2023-03-26T08:42:59.241Z,98057.34
2023-03-26T08:46:02.650Z,98047.19
2023-03-26T08:49:04.273Z,98036.94
2023-03-26T08:51:54.518Z,98040.25
2023-03-26T08:54:24.593Z,98038.47
2023-03-26T08:57:34.958Z,98035.03
2023-03-26T09:00:30.443Z,98033.22
2023-03-26T09:03:21.016Z,98029.00
2023-03-26T09:06:12.080Z,98019.59
2023-03-26T09:09:36.612Z,98014.50
2023-03-26T09:12:07.528Z,98021.38
2023-03-26T09:14:42.756Z,98022.25
2023-03-26T09:17:48.650Z,98018.84
2023-03-26T09:20:43.100Z,98017.03
2023-03-26T09:23:32.309Z,98023.00
2023-03-26T09:26:37.034Z,98015.31
2023-03-26T09:29:26.951Z,98019.50
2023-03-26T09:32:39.567Z,98016.16
2023-03-26T09:35:28.269Z,98010.09
2023-03-26T09:38:37.019Z,98011.78
2023-03-26T09:41:22.101Z,98003.22
2023-03-26T09:44:46.660Z,97988.84
2023-03-26T09:51:08.343Z,97979.59
2023-03-26T09:54:13.751Z,97972.91
2023-03-26T09:57:07.287Z,97978.97
2023-03-26T10:00:16.795Z,97980.63
2023-03-26T10:03:17.465Z,97984.78
2023-03-26T10:05:52.700Z,97984.56
2023-03-26T10:08:23.579Z,97982.75
2023-03-26T10:10:59.700Z,97977.50
2023-03-26T10:13:40.921Z,97978.28
2023-03-26T10:16:26.194Z,97970.66
2023-03-26T10:19:03.461Z,97961.94
2023-03-26T10:21:55.232Z,97970.50
2023-03-26T10:24:34.749Z,97976.47
2023-03-26T10:27:24.764Z,97968.00
2023-03-26T10:30:29.281Z,97967.09
2023-03-26T10:33:29.743Z,97966.22
2023-03-26T10:36:11.684Z,97969.75
2023-03-26T10:38:57.809Z,97961.16
2023-03-26T10:41:56.002Z,97965.47
2023-03-26T10:44:33.168Z,97962.03
2023-03-26T10:47:25.568Z,97953.59
2023-03-26T10:50:11.822Z,97956.94
2023-03-26T10:52:46.955Z,97945.81
2023-03-26T10:55:19.236Z,97950.16
2023-03-26T10:58:00.543Z,97950.28
2023-03-26T11:00:30.146Z,97944.31
2023-03-26T11:03:16.272Z,97944.44
2023-03-26T11:05:55.560Z,97949.59
2023-03-26T11:08:38.697Z,97941.91
2023-03-26T11:11:47.206Z,97942.00
2023-03-26T11:14:34.984Z,97946.25
2023-03-26T11:17:14.774Z,97945.38
2023-03-26T11:20:14.672Z,97947.13
2023-03-26T11:23:03.723Z,97938.63
2023-03-26T11:25:52.838Z,97938.63
2023-03-26T11:28:42.467Z,97942.00
2023-03-26T11:31:55.786Z,97940.41
2023-03-26T11:34:34.972Z,97942.00
2023-03-26T11:37:08.472Z,97932.63
2023-03-26T11:39:51.397Z,97930.94
2023-03-26T11:42:23.113Z,97930.88
2023-03-26T11:44:57.458Z,97938.56
2023-03-26T11:47:47.580Z,97927.47
2023-03-26T11:50:24.299Z,97930.00
2023-03-26T11:52:57.242Z,97928.22
2023-03-26T11:55:27.695Z,97930.78
2023-03-26T11:57:59.470Z,97927.38
2023-03-26T12:00:28.464Z,97933.34
2023-03-26T12:02:58.664Z,97925.69
2023-03-26T12:05:34.356Z,97927.38
2023-03-26T12:08:19.657Z,97923.25
2023-03-26T12:11:03.871Z,97931.81
2023-03-26T12:13:42.213Z,97914.69
2023-03-26T12:16:21.557Z,97920.63
2023-03-26T12:19:05.543Z,97919.00
2023-03-26T12:21:51.211Z,97919.00
2023-03-26T12:24:46.025Z,97918.13
2023-03-26T12:27:28.610Z,97901.72
2023-03-26T12:30:08.918Z,97906.94
2023-03-26T12:32:46.175Z,97903.59
2023-03-26T12:35:20.884Z,97908.59
2023-03-26T12:37:48.659Z,97899.19
2023-03-26T12:40:31.707Z,97900.97
2023-03-26T12:44:53.471Z,97893.09
2023-03-26T12:47:15.061Z,97881.91
2023-03-26T12:48:43.031Z,97891.41
2023-03-26T12:51:25.473Z,97888.91
2023-03-26T12:53:59.026Z,97891.47
2023-03-26T12:56:36.431Z,97890.63
2023-03-26T12:59:06.738Z,97889.09
2023-03-26T13:01:53.988Z,97889.84
2023-03-26T13:04:58.448Z,97898.41
2023-03-26T13:07:47.457Z,97893.31
2023-03-26T13:10:39.649Z,97892.50
2023-03-26T13:26:22.670Z,97893.28
2023-03-26T13:30:23.908Z,97889.78
2023-03-26T13:42:21.971Z,97882.81
2023-03-26T13:49:09.488Z,97880.88
2023-03-26T13:52:00.793Z,97883.53
2023-03-26T13:54:45.405Z,97880.81
2023-03-26T13:57:26.503Z,97862.94
2023-03-26T13:59:57.943Z,97874.94
2023-03-26T14:02:38.838Z,97873.22
2023-03-26T14:05:30.576Z,97881.84
2023-03-26T14:08:17.000Z,97882.72
2023-03-26T14:10:54.200Z,97879.16
2023-03-26T14:13:33.857Z,97886.13
2023-03-26T14:16:23.357Z,97889.44
2023-03-26T14:19:10.009Z,97886.03
2023-03-26T14:21:38.607Z,97882.50
2023-03-26T14:24:19.130Z,97882.50
2023-03-26T14:27:01.269Z,97892.75
2023-03-26T14:29:40.998Z,97884.16
2023-03-26T14:32:47.136Z,97880.78
2023-03-26T14:35:49.326Z,97879.16
2023-03-26T14:39:06.140Z,97882.53
2023-03-26T14:41:56.048Z,97882.53
2023-03-26T14:44:47.767Z,97873.03
2023-03-26T14:47:17.400Z,97883.38
2023-03-26T14:50:21.696Z,97879.25
2023-03-26T14:52:51.960Z,97876.53
2023-03-26T14:55:40.800Z,97882.50
2023-03-26T14:58:22.240Z,97881.66
2023-03-26T15:01:28.203Z,97879.22
2023-03-26T15:04:17.223Z,97872.97
2023-03-26T15:06:57.607Z,97872.94
2023-03-26T15:09:56.482Z,97872.19
2023-03-26T15:13:04.272Z,97873.91
2023-03-26T15:16:03.769Z,97869.59
2023-03-26T15:19:09.860Z,97862.81
2023-03-26T15:21:55.597Z,97861.03
2023-03-26T15:24:49.846Z,97860.94
2023-03-26T15:27:30.023Z,97864.34
2023-03-26T15:30:12.642Z,97866.00
2023-03-26T15:33:03.897Z,97855.69
2023-03-26T15:36:03.358Z,97863.44
2023-03-26T15:38:50.999Z,97864.28
2023-03-26T15:41:27.247Z,97863.38
2023-03-26T15:44:07.549Z,97860.84
2023-03-26T15:47:27.208Z,97869.47
2023-03-26T15:50:10.175Z,97870.28
2023-03-26T15:53:11.832Z,97870.38
2023-03-26T15:56:05.357Z,97872.94
2023-03-26T15:58:56.394Z,97876.28
2023-03-26T16:01:36.236Z,97870.28
2023-03-26T16:04:09.723Z,97872.78
2023-03-26T16:07:03.814Z,97877.91
2023-03-26T16:09:42.152Z,97873.59
2023-03-26T16:12:12.799Z,97865.88
2023-03-26T16:14:47.043Z,97866.66
2023-03-26T16:17:20.775Z,97879.50
2023-03-26T16:19:59.030Z,97876.16
2023-03-26T16:22:57.605Z,97862.50
2023-03-26T16:25:28.826Z,97877.19
2023-03-26T16:28:28.166Z,97875.44
2023-03-26T16:31:36.482Z,97873.66
2023-03-26T16:34:09.290Z,97871.06
2023-03-26T16:36:43.890Z,97876.16
2023-03-26T16:39:19.088Z,97876.19
2023-03-26T16:41:50.404Z,97876.28
2023-03-26T16:44:27.847Z,97875.41
2023-03-26T16:47:04.155Z,97884.13
2023-03-26T16:50:26.210Z,97884.06
2023-03-26T16:53:15.859Z,97872.81
2023-03-26T16:55:45.910Z,97886.41
2023-03-26T16:58:22.677Z,97881.31
2023-03-26T17:01:22.159Z,97879.69
2023-03-26T17:04:28.004Z,97880.63
2023-03-26T17:07:21.723Z,97886.59
2023-03-26T17:10:19.436Z,97885.75
2023-03-26T17:13:06.587Z,97884.06
2023-03-26T17:15:43.612Z,97885.75
2023-03-26T17:18:16.754Z,97891.75
2023-03-26T17:21:01.184Z,97887.38
2023-03-26T17:23:43.711Z,97889.06
2023-03-26T17:26:25.954Z,97877.78
2023-03-26T17:29:28.849Z,97896.66
2023-03-26T17:32:15.520Z,97890.56
2023-03-26T17:34:58.400Z,97891.47
2023-03-26T17:37:35.733Z,97886.28
2023-03-26T17:40:12.588Z,97882.88
2023-03-26T17:43:01.918Z,97884.78
2023-03-26T17:45:33.827Z,97882.88
2023-03-26T17:48:15.750Z,97887.16
2023-03-26T17:50:56.718Z,97877.72
2023-03-26T17:53:33.069Z,97876.84
2023-03-26T17:56:05.020Z,97878.50
2023-03-26T17:58:37.868Z,97886.16
2023-03-26T18:01:10.625Z,97884.41
2023-03-26T18:03:52.674Z,97885.25
2023-03-26T18:06:52.564Z,97879.28
2023-03-26T18:09:36.129Z,97879.28
2023-03-26T18:12:25.654Z,97885.34
2023-03-26T18:15:24.587Z,97882.72
2023-03-26T18:18:02.928Z,97873.97
2023-03-26T18:20:32.474Z,97875.69
2023-03-26T18:23:09.955Z,97876.72
2023-03-26T18:25:41.130Z,97873.31
2023-03-26T18:28:14.138Z,97879.28
2023-03-26T18:30:48.529Z,97869.78
2023-03-26T18:33:16.083Z,97874.06
2023-03-26T18:35:46.297Z,97875.78
2023-03-26T18:38:35.974Z,97875.59
2023-03-26T18:41:08.215Z,97867.06
2023-03-26T18:43:44.280Z,97875.63
2023-03-26T18:46:14.707Z,97859.34
2023-03-26T18:48:42.758Z,97859.34
2023-03-26T18:51:10.639Z,97867.84
2023-03-26T18:53:49.284Z,97864.44
2023-03-26T18:56:39.027Z,97873.97
2023-03-26T18:59:20.618Z,97862.75
2023-03-26T19:01:49.100Z,97867.03
2023-03-26T19:04:17.871Z,97879.81
2023-03-26T19:06:46.300Z,97871.28
2023-03-26T19:09:30.452Z,97881.50
2023-03-26T19:12:07.641Z,97882.34
2023-03-26T19:15:12.178Z,97871.25
2023-03-26T19:18:07.223Z,97876.47
2023-03-26T19:20:45.308Z,97867.75
2023-03-26T19:23:16.757Z,97861.75
2023-03-26T19:25:51.442Z,97867.72
2023-03-26T19:28:22.455Z,97864.31
2023-03-26T19:30:56.438Z,97864.38
2023-03-26T19:33:32.287Z,97862.63
2023-03-26T19:36:15.068Z,97858.50
2023-03-26T19:38:51.591Z,97851.59
2023-03-26T19:41:25.205Z,97857.63
2023-03-26T19:44:00.601Z,97856.81
2023-03-26T19:46:34.471Z,97855.94
2023-03-26T19:49:33.657Z,97849.97
2023-03-26T19:55:27.266Z,97850.78
2023-03-26T19:58:22.307Z,97863.69
2023-03-26T20:00:55.837Z,97871.31
2023-03-26T20:03:28.205Z,97869.56
2023-03-26T20:05:56.023Z,97867.75
2023-03-26T20:08:27.215Z,97868.63
2023-03-26T20:10:57.011Z,97874.56
2023-03-26T20:13:24.758Z,97871.91
2023-03-26T20:16:07.553Z,97882.25
2023-03-26T20:18:35.518Z,97877.00
2023-03-26T20:21:09.098Z,97880.34
2023-03-26T20:23:37.519Z,97882.94
2023-03-26T20:26:05.600Z,97894.88
2023-03-26T20:28:42.266Z,97882.81
2023-03-26T20:31:19.424Z,97884.47
2023-03-26T20:33:48.147Z,97880.09
2023-03-26T20:36:34.341Z,97890.28
2023-03-26T20:39:08.108Z,97889.47
2023-03-26T20:41:44.965Z,97886.88
2023-03-26T20:44:15.813Z,97895.28
2023-03-26T20:46:44.298Z,97903.69
2023-03-26T20:49:12.954Z,97893.31
2023-03-26T20:51:45.670Z,97906.06
2023-03-26T20:54:19.351Z,97904.25
2023-03-26T20:56:49.226Z,97912.66
2023-03-26T20:59:22.775Z,97907.50
2023-03-26T21:01:51.360Z,97896.31
2023-03-26T21:04:19.989Z,97903.97
2023-03-26T21:06:48.430Z,97901.44
2023-03-26T21:09:19.198Z,97899.72
2023-03-26T21:11:50.046Z,97907.34
2023-03-26T21:14:44.244Z,97915.03
2023-03-26T21:17:20.757Z,97911.50
2023-03-26T21:19:49.675Z,97909.66
2023-03-26T21:22:33.928Z,97918.41
2023-03-26T21:25:17.547Z,97915.81
2023-03-26T21:28:11.313Z,97919.31
2023-03-26T21:30:40.022Z,97915.75
2023-03-26T21:33:07.766Z,97926.78
2023-03-26T21:35:35.757Z,97925.03
2023-03-26T21:38:05.483Z,97924.00
2023-03-26T21:40:33.349Z,97928.28
2023-03-26T21:43:01.153Z,97931.66
2023-03-26T21:45:29.029Z,97934.06
2023-03-26T21:47:57.034Z,97941.69
2023-03-26T21:50:24.972Z,97940.59
2023-03-26T21:52:52.913Z,97939.00
2023-03-26T21:55:22.963Z,97939.00
2023-03-26T21:58:17.358Z,97948.50
2023-03-26T22:01:17.269Z,97946.63
2023-03-26T22:04:11.890Z,97942.38
2023-03-26T22:06:57.351Z,97957.72
2023-03-26T22:09:33.835Z,97954.06
2023-03-26T22:12:04.223Z,97949.78
2023-03-26T22:14:31.725Z,97956.53
2023-03-26T22:16:59.588Z,97963.25
2023-03-26T22:19:28.575Z,97960.81
2023-03-26T22:21:58.416Z,97951.41
2023-03-26T22:24:26.319Z,97964.25
2023-03-26T22:26:53.906Z,97957.41
2023-03-26T22:29:21.532Z,97961.69
2023-03-26T22:31:49.037Z,97956.72
2023-03-26T22:34:16.825Z,97952.31
2023-03-26T22:36:44.373Z,97959.97
2023-03-26T22:39:12.401Z,97958.25
2023-03-26T22:41:39.940Z,97958.28
2023-03-26T22:44:19.203Z,97957.53
2023-03-26T22:46:51.492Z,97963.44
2023-03-26T22:49:19.424Z,97964.25
2023-03-26T22:51:46.959Z,97963.31
2023-03-26T22:54:14.750Z,97954.84
2023-03-26T22:56:43.686Z,97964.19
2023-03-26T22:59:11.309Z,97965.03
2023-03-26T23:01:39.470Z,97965.06
2023-03-26T23:04:07.184Z,97966.78
2023-03-26T23:06:34.771Z,97953.81
2023-03-26T23:09:02.357Z,97961.53
2023-03-26T23:11:31.189Z,97967.50
2023-03-26T23:13:59.004Z,97958.91
2023-03-26T23:16:26.805Z,97975.88
2023-03-26T23:18:54.355Z,97980.91
2023-03-26T23:21:22.369Z,97979.19
2023-03-26T23:23:52.287Z,97969.88
2023-03-26T23:26:20.017Z,97961.34
2023-03-26T23:28:47.965Z,97965.66
2023-03-26T23:31:15.600Z,97970.75
2023-03-26T23:33:46.207Z,97972.50
2023-03-26T23:36:17.799Z,97966.50
2023-03-26T23:38:47.836Z,97969.00
2023-03-26T23:41:17.707Z,97968.84
2023-03-26T23:43:54.521Z,97972.22
2023-03-26T23:46:25.066Z,97967.84
2023-03-26T23:48:53.088Z,97978.06
2023-03-26T23:51:21.340Z,97978.91
2023-03-26T23:53:49.520Z,97967.75
2023-03-26T23:56:17.473Z,97971.09
2023-03-26T23:58:44.926Z,97965.91
